createdAt,value
2023-05-17T00:00:58.711Z,4.57
2023-05-17T00:04:00.396Z,4.80
2023-05-17T00:07:02.156Z,4.80
2023-05-17T00:10:04.202Z,4.95
2023-05-17T00:13:05.815Z,5.20
2023-05-17T00:16:08.089Z,5.25
2023-05-17T00:19:09.853Z,5.63
2023-05-17T00:22:11.769Z,5.53
2023-05-17T00:25:13.399Z,4.53
2023-05-17T00:28:14.996Z,5.47
2023-05-17T00:31:17.674Z,4.90
2023-05-17T00:34:19.367Z,5.32
2023-05-17T00:37:21.032Z,5.55
2023-05-17T00:40:22.720Z,5.70
2023-05-17T00:43:26.060Z,5.68
2023-05-17T00:46:27.729Z,5.55
2023-05-17T00:49:29.440Z,5.60
2023-05-17T00:52:31.118Z,6.20
2023-05-17T00:55:33.513Z,6.78
2023-05-17T00:58:36.806Z,6.10
2023-05-17T01:01:42.332Z,6.85
2023-05-17T01:04:44.244Z,6.57
2023-05-17T01:07:45.858Z,7.25
2023-05-17T01:11:01.888Z,8.50
2023-05-17T01:14:32.581Z,7.47
2023-05-17T01:17:50.761Z,6.70
2023-05-17T01:20:54.198Z,7.18
2023-05-17T01:24:08.742Z,7.00
2023-05-17T01:27:12.773Z,6.63
2023-05-17T01:30:15.753Z,7.50
2023-05-17T01:33:19.798Z,7.85
2023-05-17T01:36:21.798Z,6.78
2023-05-17T01:39:24.644Z,8.77
2023-05-17T01:42:31.947Z,7.72
2023-05-17T01:45:47.357Z,8.05
2023-05-17T01:48:56.827Z,7.30
2023-05-17T01:52:08.536Z,8.00
2023-05-17T01:55:32.783Z,8.30
2023-05-17T01:58:43.382Z,7.32
2023-05-17T02:01:45.955Z,8.63
2023-05-17T02:04:48.192Z,8.18
2023-05-17T02:07:49.841Z,9.07
2023-05-17T02:10:51.569Z,7.60
2023-05-17T02:13:53.170Z,8.20
2023-05-17T02:16:54.775Z,8.82
2023-05-17T02:19:56.369Z,9.93
2023-05-17T02:22:57.968Z,10.05
2023-05-17T02:25:59.610Z,9.30
2023-05-17T02:29:01.209Z,8.98
2023-05-17T02:32:02.841Z,9.20
2023-05-17T02:35:04.790Z,9.02
2023-05-17T02:38:06.479Z,9.13
2023-05-17T02:41:08.218Z,8.70
2023-05-17T02:44:09.812Z,11.18
2023-05-17T02:47:11.483Z,10.85
2023-05-17T02:50:13.134Z,10.52
2023-05-17T02:53:14.728Z,10.50
2023-05-17T02:56:16.282Z,9.73
2023-05-17T02:59:17.986Z,9.98
2023-05-17T03:02:19.686Z,10.88
2023-05-17T03:05:21.370Z,10.88
2023-05-17T03:08:22.956Z,11.75
2023-05-17T03:11:24.557Z,11.90
2023-05-17T03:14:26.153Z,11.38
2023-05-17T03:17:27.891Z,12.35
2023-05-17T03:20:29.589Z,11.75
2023-05-17T03:23:31.264Z,10.90
2023-05-17T03:26:33.380Z,11.27
2023-05-17T03:29:34.993Z,12.15
2023-05-17T03:32:40.243Z,11.95
2023-05-17T03:35:42.210Z,11.32
2023-05-17T03:38:43.843Z,13.82
2023-05-17T03:41:45.600Z,12.60
2023-05-17T03:44:47.261Z,12.57
2023-05-17T03:47:48.933Z,13.55
2023-05-17T03:50:51.006Z,12.25
2023-05-17T03:53:58.377Z,13.10
2023-05-17T03:56:59.977Z,12.18
2023-05-17T04:00:01.757Z,12.85
2023-05-17T04:03:03.486Z,13.30
2023-05-17T04:06:08.664Z,12.77
2023-05-17T04:09:12.914Z,11.15
2023-05-17T04:12:15.112Z,13.07
2023-05-17T04:15:16.740Z,11.57
2023-05-17T04:18:18.376Z,11.48
2023-05-17T04:21:20.042Z,12.38
2023-05-17T04:24:21.646Z,12.13
2023-05-17T04:27:23.271Z,10.65
2023-05-17T04:30:24.908Z,11.00
2023-05-17T04:33:26.798Z,12.60
2023-05-17T04:36:28.498Z,11.68
2023-05-17T04:39:31.100Z,10.77
2023-05-17T04:42:32.708Z,11.27
2023-05-17T04:45:34.570Z,11.93
2023-05-17T04:48:36.574Z,9.35
2023-05-17T04:51:38.350Z,11.98
2023-05-17T04:54:39.922Z,11.90
2023-05-17T04:57:41.947Z,12.43
2023-05-17T05:00:43.580Z,12.35
2023-05-17T05:03:45.304Z,12.02
2023-05-17T05:06:47.144Z,11.65
2023-05-17T05:09:48.737Z,11.02
2023-05-17T05:12:50.634Z,11.20
2023-05-17T05:15:52.232Z,11.07
2023-05-17T05:18:54.128Z,10.15
2023-05-17T05:21:56.010Z,9.63
2023-05-17T05:24:57.585Z,10.02
2023-05-17T05:27:59.188Z,10.10
2023-05-17T05:31:01.189Z,8.93
2023-05-17T05:34:03.272Z,9.40
2023-05-17T05:37:05.369Z,9.30
2023-05-17T05:40:08.807Z,8.20
2023-05-17T05:43:10.395Z,8.23
2023-05-17T05:46:12.201Z,7.80
2023-05-17T05:49:13.869Z,7.20
2023-05-17T05:52:15.457Z,6.50
2023-05-17T05:55:17.060Z,6.38
2023-05-17T05:58:19.273Z,6.38
2023-05-17T06:01:21.174Z,5.65
2023-05-17T06:04:27.106Z,5.68
2023-05-17T06:07:38.293Z,5.18
2023-05-17T06:10:40.012Z,4.70
2023-05-17T06:13:41.707Z,6.00
2023-05-17T06:16:43.290Z,5.57
2023-05-17T06:19:44.939Z,4.85
2023-05-17T06:22:46.610Z,4.97
2023-05-17T06:25:48.261Z,6.18
2023-05-17T06:28:49.897Z,6.43
2023-05-17T06:31:51.512Z,5.68
2023-05-17T06:34:53.132Z,4.75
2023-05-17T06:37:54.787Z,4.32
2023-05-17T06:40:58.449Z,4.70
2023-05-17T06:44:00.042Z,4.88
2023-05-17T06:47:01.647Z,5.05
2023-05-17T06:50:03.913Z,8.05
2023-05-17T06:53:05.692Z,5.47
2023-05-17T06:56:07.495Z,4.72
2023-05-17T06:59:09.049Z,5.22
2023-05-17T07:02:10.848Z,5.90
2023-05-17T07:05:12.583Z,5.90
2023-05-17T07:08:15.503Z,5.75
2023-05-17T07:11:17.123Z,4.93
2023-05-17T07:14:18.815Z,5.32
2023-05-17T07:17:20.405Z,3.75
2023-05-17T07:20:22.263Z,4.07
2023-05-17T07:23:23.822Z,4.40
2023-05-17T07:26:25.564Z,4.20
2023-05-17T07:29:27.180Z,4.28
2023-05-17T07:32:28.830Z,4.63
2023-05-17T07:35:33.346Z,3.67
2023-05-17T07:38:37.986Z,3.58
2023-05-17T07:41:39.653Z,5.30
2023-05-17T07:44:41.329Z,4.18
2023-05-17T07:47:43.063Z,3.42
2023-05-17T07:50:44.878Z,3.97
2023-05-17T07:53:46.574Z,3.70
2023-05-17T07:56:48.161Z,4.80
2023-05-17T07:59:49.735Z,4.78
2023-05-17T08:02:51.532Z,4.18
2023-05-17T08:05:53.204Z,3.03
2023-05-17T08:08:54.821Z,3.20
2023-05-17T08:11:56.476Z,3.25
2023-05-17T08:14:58.121Z,4.10
2023-05-17T08:18:02.151Z,3.65
2023-05-17T08:21:05.410Z,3.65
2023-05-17T08:24:07.424Z,3.08
2023-05-17T08:27:13.008Z,3.33
2023-05-17T08:30:27.823Z,3.33
2023-05-17T08:33:30.357Z,3.05
2023-05-17T08:36:32.004Z,3.70
2023-05-17T08:39:33.661Z,2.88
2023-05-17T08:42:36.481Z,3.53
2023-05-17T08:45:38.687Z,3.53
2023-05-17T08:48:43.089Z,2.85
2023-05-17T08:51:46.918Z,3.17
2023-05-17T08:54:48.615Z,4.03
2023-05-17T08:57:50.400Z,4.20
2023-05-17T09:00:54.194Z,3.63
2023-05-17T09:03:56.448Z,3.03
2023-05-17T09:06:58.935Z,3.40
2023-05-17T09:10:00.565Z,4.07
2023-05-17T09:13:02.597Z,2.80
2023-05-17T09:16:13.944Z,2.97
2023-05-17T09:19:17.584Z,3.65
2023-05-17T09:22:19.943Z,3.33
2023-05-17T09:25:24.397Z,3.58
2023-05-17T09:28:29.339Z,3.42
2023-05-17T09:31:31.478Z,3.00
2023-05-17T09:34:33.720Z,2.95
2023-05-17T09:37:38.312Z,3.50
2023-05-17T09:40:48.068Z,3.63
2023-05-17T09:43:49.661Z,3.23
2023-05-17T09:46:51.503Z,3.40
2023-05-17T09:49:53.195Z,2.90
2023-05-17T09:52:54.839Z,3.75
2023-05-17T09:55:58.652Z,3.42
2023-05-17T09:59:10.549Z,3.20
2023-05-17T10:02:20.052Z,3.13
2023-05-17T10:05:22.509Z,2.78
2023-05-17T10:08:27.447Z,3.03
2023-05-17T10:11:34.284Z,3.17
2023-05-17T10:14:36.914Z,3.15
2023-05-17T10:17:43.948Z,3.20
2023-05-17T10:20:48.065Z,3.03
2023-05-17T10:23:50.318Z,3.65
2023-05-17T10:26:52.100Z,2.80
2023-05-17T10:29:54.864Z,2.40
2023-05-17T10:32:57.114Z,2.40
2023-05-17T10:35:59.687Z,3.63
2023-05-17T10:39:02.259Z,2.80
2023-05-17T10:42:14.839Z,2.78
2023-05-17T10:45:19.947Z,2.72
2023-05-17T10:48:21.853Z,2.83
2023-05-17T10:51:26.041Z,2.75
2023-05-17T10:54:39.184Z,2.50
2023-05-17T11:00:55.662Z,2.38
2023-05-17T11:03:57.907Z,2.72
2023-05-17T11:07:18.928Z,2.42
2023-05-17T11:10:20.713Z,2.75
2023-05-17T11:13:25.185Z,2.72
2023-05-17T11:16:34.101Z,3.15
2023-05-17T11:19:36.534Z,2.28
2023-05-17T11:22:43.647Z,2.53
2023-05-17T11:25:48.014Z,2.97
2023-05-17T11:29:02.239Z,2.70
2023-05-17T11:32:07.540Z,2.85
2023-05-17T11:35:12.603Z,2.33
2023-05-17T11:38:21.777Z,2.75
2023-05-17T11:41:26.847Z,3.00
2023-05-17T11:44:33.144Z,2.30
2023-05-17T11:47:39.496Z,2.60
2023-05-17T11:50:42.457Z,2.42
2023-05-17T11:53:44.569Z,2.75
2023-05-17T11:56:46.313Z,2.53
2023-05-17T11:59:48.049Z,2.58
2023-05-17T12:02:49.672Z,2.50
2023-05-17T12:06:14.569Z,2.67
2023-05-17T12:09:19.103Z,2.60
2023-05-17T12:12:22.439Z,2.85
2023-05-17T12:15:24.744Z,2.80
2023-05-17T12:18:48.329Z,2.50
2023-05-17T12:21:51.028Z,2.83
2023-05-17T12:24:52.798Z,2.63
2023-05-17T12:28:14.321Z,2.92
2023-05-17T12:31:19.308Z,2.50
2023-05-17T12:34:21.800Z,2.92
2023-05-17T12:37:23.497Z,2.70
2023-05-17T12:40:25.244Z,3.05
2023-05-17T12:43:28.534Z,2.78
2023-05-17T12:46:32.062Z,2.70
2023-05-17T12:49:38.778Z,2.70
2023-05-17T12:52:41.347Z,3.38
2023-05-17T12:55:42.932Z,3.60
2023-05-17T12:58:45.759Z,3.30
2023-05-17T13:01:52.415Z,3.22
2023-05-17T13:04:54.410Z,3.08
2023-05-17T13:07:56.202Z,3.38
2023-05-17T13:11:13.367Z,3.65
2023-05-17T13:14:15.012Z,3.47
2023-05-17T13:17:18.644Z,3.65
2023-05-17T13:20:20.567Z,2.92
2023-05-17T13:23:22.172Z,3.00
2023-05-17T13:26:23.777Z,3.05
2023-05-17T13:29:38.048Z,2.95
2023-05-17T13:32:40.615Z,3.22
2023-05-17T13:35:42.273Z,3.00
2023-05-17T13:38:43.842Z,2.92
2023-05-17T13:41:46.315Z,2.90
2023-05-17T13:44:48.350Z,3.50
2023-05-17T13:47:49.982Z,3.25
2023-05-17T13:50:52.165Z,2.90
2023-05-17T13:53:53.857Z,3.78
2023-05-17T13:56:57.282Z,2.97
2023-05-17T13:59:58.871Z,3.10
2023-05-17T14:03:00.571Z,3.28
2023-05-17T14:06:05.383Z,3.10
2023-05-17T14:09:07.107Z,3.15
2023-05-17T14:12:08.871Z,3.60
2023-05-17T14:15:10.987Z,2.70
2023-05-17T14:18:12.740Z,2.83
2023-05-17T14:21:14.433Z,2.95
2023-05-17T14:24:16.250Z,3.38
2023-05-17T14:27:17.937Z,3.30
2023-05-17T14:30:20.607Z,3.15
2023-05-17T14:33:22.308Z,3.70
2023-05-17T14:36:24.140Z,3.28
2023-05-17T14:39:26.455Z,3.63
2023-05-17T14:42:28.539Z,3.65
2023-05-17T14:45:30.175Z,3.05
2023-05-17T14:48:32.881Z,3.40
2023-05-17T14:51:34.555Z,3.15
2023-05-17T14:54:36.470Z,2.88
2023-05-17T14:57:39.945Z,3.42
2023-05-17T15:00:47.269Z,3.40
2023-05-17T15:03:48.975Z,3.50
2023-05-17T15:06:51.112Z,4.35
2023-05-17T15:09:52.905Z,3.22
2023-05-17T15:12:54.481Z,3.20
2023-05-17T15:15:56.215Z,3.65
2023-05-17T15:18:58.101Z,3.33
2023-05-17T15:21:59.818Z,3.63
2023-05-17T15:25:01.644Z,3.75
2023-05-17T15:28:03.281Z,3.97
2023-05-17T15:31:10.607Z,3.88
2023-05-17T15:34:12.427Z,3.88
2023-05-17T15:37:14.169Z,3.63
2023-05-17T15:40:16.773Z,3.38
2023-05-17T15:43:18.362Z,3.35
2023-05-17T15:46:20.556Z,3.70
2023-05-17T15:49:22.138Z,3.83
2023-05-17T15:52:23.769Z,4.15
2023-05-17T15:55:25.549Z,3.90
2023-05-17T15:58:33.121Z,4.00
2023-05-17T16:01:34.850Z,4.43
2023-05-17T16:04:36.551Z,4.20
2023-05-17T16:07:38.153Z,4.35
2023-05-17T16:10:39.815Z,3.88
2023-05-17T16:13:41.590Z,3.65
2023-05-17T16:16:45.079Z,3.42
2023-05-17T16:19:46.960Z,4.13
2023-05-17T16:22:49.277Z,4.00
2023-05-17T16:25:51.398Z,3.92
2023-05-17T16:28:53.160Z,4.70
2023-05-17T16:31:54.854Z,4.50
2023-05-17T16:34:56.471Z,4.50
2023-05-17T16:37:58.090Z,3.80
2023-05-17T16:41:03.174Z,4.18
2023-05-17T16:44:04.982Z,4.72
2023-05-17T16:47:06.752Z,4.32
2023-05-17T16:50:09.031Z,3.90
2023-05-17T16:53:10.741Z,4.93
2023-05-17T16:56:12.332Z,4.55
2023-05-17T16:59:15.601Z,4.38
2023-05-17T17:02:17.680Z,4.70
2023-05-17T17:05:20.568Z,4.72
2023-05-17T17:08:22.138Z,5.32
2023-05-17T17:11:23.831Z,5.93
2023-05-17T17:14:25.994Z,3.78
2023-05-17T17:17:29.115Z,4.35
2023-05-17T17:20:31.122Z,5.10
2023-05-17T17:23:32.920Z,4.38
2023-05-17T17:26:38.120Z,3.75
2023-05-17T17:29:39.771Z,4.05
2023-05-17T17:32:41.499Z,4.25
2023-05-17T17:35:43.212Z,4.47
2023-05-17T17:38:44.923Z,4.25
2023-05-17T17:41:46.573Z,4.20
2023-05-17T17:44:48.750Z,4.10
2023-05-17T17:47:50.429Z,3.95
2023-05-17T17:50:52.102Z,3.60
2023-05-17T17:53:54.064Z,3.63
2023-05-17T17:56:55.889Z,3.80
2023-05-17T17:59:58.238Z,3.50
2023-05-17T18:02:59.908Z,4.10
2023-05-17T18:06:01.674Z,3.63
2023-05-17T18:09:03.387Z,4.22
2023-05-17T18:12:05.362Z,4.20
2023-05-17T18:15:07.511Z,4.88
2023-05-17T18:18:09.148Z,4.13
2023-05-17T18:21:11.424Z,4.18
2023-05-17T18:24:13.050Z,4.00
2023-05-17T18:27:14.980Z,4.55
2023-05-17T18:30:18.420Z,3.55
2023-05-17T18:33:20.153Z,4.05
2023-05-17T18:36:21.867Z,4.68
2023-05-17T18:39:23.585Z,3.10
2023-05-17T18:42:25.262Z,4.03
2023-05-17T18:45:26.952Z,3.88
2023-05-17T18:48:28.642Z,3.58
2023-05-17T18:51:31.496Z,2.65
2023-05-17T18:54:33.266Z,3.42
2023-05-17T18:57:34.862Z,3.40
2023-05-17T19:00:36.867Z,2.92
2023-05-17T19:03:38.564Z,3.55
2023-05-17T19:06:43.380Z,3.75
2023-05-17T19:09:45.850Z,3.28
2023-05-17T19:12:47.507Z,3.42
2023-05-17T19:15:49.466Z,3.80
2023-05-17T19:18:51.116Z,3.50
2023-05-17T19:21:52.757Z,3.45
2023-05-17T19:24:54.367Z,3.30
2023-05-17T19:27:56.055Z,3.22
2023-05-17T19:30:57.727Z,3.30
2023-05-17T19:33:59.508Z,3.85
2023-05-17T19:37:01.149Z,3.95
2023-05-17T19:40:05.865Z,3.50
2023-05-17T19:43:07.626Z,3.40
2023-05-17T19:46:11.485Z,3.00
2023-05-17T19:49:13.162Z,3.35
2023-05-17T19:52:14.795Z,3.80
2023-05-17T19:55:21.748Z,3.65
2023-05-17T19:58:25.229Z,3.55
2023-05-17T20:01:26.961Z,3.35
2023-05-17T20:04:28.556Z,3.38
2023-05-17T20:07:30.591Z,3.38
2023-05-17T20:10:32.366Z,3.22
2023-05-17T20:13:34.807Z,4.43
2023-05-17T20:16:36.471Z,4.30
2023-05-17T20:19:38.479Z,3.88
2023-05-17T20:22:41.020Z,3.88
2023-05-17T20:25:42.702Z,3.58
2023-05-17T20:28:44.990Z,3.33
2023-05-17T20:31:46.630Z,3.60
2023-05-17T20:34:48.225Z,4.13
2023-05-17T20:37:50.049Z,3.78
2023-05-17T20:40:52.109Z,3.90
2023-05-17T20:43:53.934Z,3.88
2023-05-17T20:46:56.809Z,4.00
2023-05-17T20:49:59.661Z,3.97
2023-05-17T20:53:01.488Z,3.35
2023-05-17T20:56:03.226Z,3.80
2023-05-17T20:59:04.865Z,3.35
2023-05-17T21:02:06.938Z,4.47
2023-05-17T21:05:09.969Z,3.47
2023-05-17T21:08:12.774Z,4.07
2023-05-17T21:11:18.953Z,4.50
2023-05-17T21:14:20.666Z,4.50
2023-05-17T21:17:22.329Z,3.70
2023-05-17T21:20:24.920Z,4.22
2023-05-17T21:23:26.616Z,3.78
2023-05-17T21:29:35.391Z,3.78
2023-05-17T21:32:37.128Z,3.42
2023-05-17T21:35:38.847Z,3.80
2023-05-17T21:38:40.499Z,3.47
2023-05-17T21:41:42.167Z,3.40
2023-05-17T21:44:43.752Z,3.88
2023-05-17T21:47:45.451Z,3.50
2023-05-17T21:50:47.116Z,3.88
2023-05-17T21:53:50.292Z,4.28
2023-05-17T21:56:52.202Z,3.67
2023-05-17T21:59:53.819Z,3.80
2023-05-17T22:02:56.138Z,4.15
2023-05-17T22:05:57.802Z,4.07
2023-05-17T22:08:59.427Z,4.07
2023-05-17T22:12:01.041Z,3.90
2023-05-17T22:15:02.627Z,4.03
2023-05-17T22:18:05.199Z,4.20
2023-05-17T22:21:08.669Z,4.32
2023-05-17T22:24:10.412Z,4.13
2023-05-17T22:27:12.400Z,3.88
2023-05-17T22:30:14.104Z,3.88
2023-05-17T22:33:15.683Z,3.60
2023-05-17T22:36:18.951Z,4.40
2023-05-17T22:39:20.633Z,3.63
2023-05-17T22:42:22.650Z,4.30
2023-05-17T22:45:29.929Z,4.00
2023-05-17T22:48:32.408Z,4.20
2023-05-17T22:51:34.921Z,4.18
2023-05-17T22:54:37.880Z,3.85
2023-05-17T22:57:39.484Z,4.57
2023-05-17T23:00:41.537Z,4.07
2023-05-17T23:03:43.205Z,3.88
2023-05-17T23:06:44.843Z,3.83
2023-05-17T23:09:47.029Z,4.28
2023-05-17T23:12:50.784Z,3.33
2023-05-17T23:15:53.950Z,3.97
2023-05-17T23:18:55.649Z,4.15
2023-05-17T23:21:57.708Z,4.20
2023-05-17T23:25:00.255Z,3.85
2023-05-17T23:28:04.352Z,4.50
2023-05-17T23:31:06.034Z,3.58
2023-05-17T23:34:07.690Z,3.65
2023-05-17T23:37:09.282Z,4.28
2023-05-17T23:40:11.662Z,4.22
2023-05-17T23:43:13.332Z,4.40
2023-05-17T23:46:19.384Z,4.45
2023-05-17T23:49:22.687Z,3.90
2023-05-17T23:52:24.292Z,3.50
2023-05-17T23:55:25.983Z,3.80
2023-05-17T23:58:27.622Z,4.25
